createdAt,value
2019-05-09T00:00:26.082Z,22.73
2019-05-09T00:02:58.189Z,25.27
2019-05-09T00:05:29.896Z,20.55
2019-05-09T00:08:03.525Z,24.05
2019-05-09T00:10:39.459Z,23.22
2019-05-09T00:13:08.954Z,25.70
2019-05-09T00:15:41.022Z,26.02
2019-05-09T00:18:14.227Z,27.75
2019-05-09T00:20:48.233Z,22.25
2019-05-09T00:23:19.875Z,30.10
2019-05-09T00:25:53.771Z,29.35
2019-05-09T00:28:26.691Z,27.05
2019-05-09T00:31:03.436Z,28.77
2019-05-09T00:33:35.366Z,26.90
2019-05-09T00:36:07.059Z,34.13
2019-05-09T00:38:40.472Z,32.20
2019-05-09T00:41:14.036Z,27.65
2019-05-09T00:43:47.477Z,28.23
2019-05-09T00:46:21.049Z,27.35
2019-05-09T00:48:57.847Z,30.20
2019-05-09T00:51:29.793Z,31.82
2019-05-09T00:54:03.970Z,28.20
2019-05-09T00:56:34.764Z,31.00
2019-05-09T00:59:06.666Z,30.32
2019-05-09T01:01:38.868Z,32.08
2019-05-09T01:04:11.416Z,30.48
2019-05-09T01:06:44.069Z,26.15
2019-05-09T01:09:15.913Z,27.95
2019-05-09T01:11:47.946Z,29.35
2019-05-09T01:14:20.184Z,28.57
2019-05-09T01:16:53.505Z,27.50
2019-05-09T01:19:25.197Z,33.33
2019-05-09T01:21:58.380Z,30.77
2019-05-09T01:24:30.349Z,26.85
2019-05-09T01:27:04.018Z,32.40
2019-05-09T01:29:35.877Z,32.35
2019-05-09T01:32:14.424Z,30.55
2019-05-09T01:34:45.453Z,27.20
2019-05-09T01:37:17.090Z,31.93
2019-05-09T01:39:49.058Z,28.12
2019-05-09T01:42:20.771Z,26.35
2019-05-09T01:44:53.361Z,26.93
2019-05-09T01:47:25.160Z,29.40
2019-05-09T01:49:57.003Z,26.68
2019-05-09T01:52:28.861Z,29.27
2019-05-09T01:55:00.637Z,31.02
2019-05-09T01:57:33.753Z,28.42
2019-05-09T02:00:10.058Z,29.72
2019-05-09T02:02:43.342Z,27.20
2019-05-09T02:05:15.368Z,27.20
2019-05-09T02:07:46.990Z,27.48
2019-05-09T02:10:18.823Z,28.73
2019-05-09T02:12:50.396Z,28.57
2019-05-09T02:15:30.210Z,29.77
2019-05-09T02:18:06.844Z,26.63
2019-05-09T02:20:38.984Z,24.98
2019-05-09T02:23:10.652Z,34.20
2019-05-09T02:25:43.815Z,29.30
2019-05-09T02:28:16.737Z,34.30
2019-05-09T02:30:48.699Z,32.48
2019-05-09T02:33:24.814Z,30.17
2019-05-09T02:36:00.854Z,29.55
2019-05-09T02:38:28.818Z,31.05
2019-05-09T02:41:00.657Z,31.52
2019-05-09T02:43:32.480Z,31.00
2019-05-09T02:46:10.203Z,31.85
2019-05-09T02:48:42.083Z,31.30
2019-05-09T02:51:14.126Z,28.90
2019-05-09T02:53:48.488Z,35.23
2019-05-09T02:56:20.307Z,33.23
2019-05-09T02:58:58.902Z,27.20
2019-05-09T03:01:49.659Z,28.85
2019-05-09T03:04:21.679Z,30.25
2019-05-09T03:06:53.647Z,37.20
2019-05-09T03:09:28.433Z,38.02
2019-05-09T03:12:20.546Z,34.92
2019-05-09T03:14:33.008Z,34.75
2019-05-09T03:17:05.059Z,36.77
2019-05-09T03:19:38.676Z,33.38
2019-05-09T03:22:14.922Z,40.38
2019-05-09T03:24:48.664Z,33.90
2019-05-09T03:27:22.149Z,35.33
2019-05-09T03:29:55.312Z,34.00
2019-05-09T03:32:29.863Z,33.75
2019-05-09T03:35:01.723Z,34.78
2019-05-09T03:37:34.403Z,38.98
2019-05-09T03:40:07.906Z,31.20
2019-05-09T03:42:43.664Z,32.25
2019-05-09T03:45:15.073Z,29.77
2019-05-09T03:47:51.266Z,34.63
2019-05-09T03:50:22.827Z,30.10
2019-05-09T03:52:54.423Z,27.52
2019-05-09T03:55:28.162Z,28.60
2019-05-09T03:58:07.493Z,31.60
2019-05-09T04:00:39.883Z,37.30
2019-05-09T04:03:12.032Z,27.75
2019-05-09T04:05:55.338Z,29.07
2019-05-09T04:08:18.137Z,31.87
2019-05-09T04:10:51.875Z,35.30
2019-05-09T04:13:25.353Z,31.95
2019-05-09T04:15:58.174Z,35.13
2019-05-09T04:18:30.139Z,34.00
2019-05-09T04:21:02.274Z,37.70
2019-05-09T04:23:34.475Z,36.30
2019-05-09T04:26:13.572Z,33.35
2019-05-09T04:28:47.136Z,34.43
2019-05-09T04:31:19.066Z,29.72
2019-05-09T04:33:50.873Z,38.28
2019-05-09T04:36:24.423Z,34.53
2019-05-09T04:38:57.822Z,34.90
2019-05-09T04:41:29.376Z,31.97
2019-05-09T04:44:05.127Z,30.88
2019-05-09T04:46:35.042Z,31.93
2019-05-09T04:49:08.209Z,29.07
2019-05-09T04:51:40.088Z,33.40
2019-05-09T04:54:13.195Z,30.45
2019-05-09T04:56:47.280Z,28.45
2019-05-09T04:59:18.356Z,27.90
2019-05-09T05:01:51.861Z,26.85
2019-05-09T05:04:25.328Z,27.70
2019-05-09T05:06:58.574Z,28.45
2019-05-09T05:09:30.071Z,32.38
2019-05-09T05:12:02.000Z,31.97
2019-05-09T05:14:34.028Z,33.55
2019-05-09T05:17:10.198Z,30.50
2019-05-09T05:19:39.404Z,32.00
2019-05-09T05:22:17.981Z,30.43
2019-05-09T05:24:50.494Z,31.42
2019-05-09T05:27:22.634Z,34.23
2019-05-09T05:29:54.700Z,30.62
2019-05-09T05:32:31.654Z,29.70
2019-05-09T05:35:10.485Z,29.52
2019-05-09T05:37:42.446Z,25.57
2019-05-09T05:40:14.502Z,25.23
2019-05-09T05:42:47.797Z,26.90
2019-05-09T05:45:20.023Z,27.40
2019-05-09T05:47:53.272Z,29.87
2019-05-09T05:50:24.928Z,26.62
2019-05-09T05:52:57.792Z,30.08
2019-05-09T05:55:29.693Z,27.40
2019-05-09T05:58:01.810Z,28.50
2019-05-09T06:00:33.593Z,25.77
2019-05-09T06:03:05.696Z,27.42
2019-05-09T06:05:38.296Z,26.85
2019-05-09T06:08:11.157Z,29.12
2019-05-09T06:10:43.175Z,24.10
2019-05-09T06:13:15.058Z,30.02
2019-05-09T06:15:48.186Z,28.23
2019-05-09T06:18:19.896Z,29.85
2019-05-09T06:20:51.747Z,28.87
2019-05-09T06:23:23.853Z,23.70
2019-05-09T06:25:58.802Z,31.77
2019-05-09T06:28:30.692Z,26.87
2019-05-09T06:31:02.893Z,30.50
2019-05-09T06:33:35.597Z,21.52
2019-05-09T06:36:08.409Z,22.77
2019-05-09T06:38:40.215Z,28.90
2019-05-09T06:41:12.327Z,24.82
2019-05-09T06:43:45.560Z,25.17
2019-05-09T06:46:22.133Z,22.00
2019-05-09T06:49:17.937Z,24.07
2019-05-09T06:51:28.882Z,21.50
2019-05-09T06:54:00.917Z,32.75
2019-05-09T06:56:32.859Z,18.40
2019-05-09T06:59:04.662Z,22.75
2019-05-09T07:01:48.131Z,18.30
2019-05-09T07:04:21.741Z,20.48
2019-05-09T07:06:58.777Z,20.80
2019-05-09T07:09:32.397Z,20.88
2019-05-09T07:12:03.980Z,18.50
2019-05-09T07:14:41.677Z,18.70
2019-05-09T07:17:11.768Z,15.58
2019-05-09T07:19:44.260Z,12.82
2019-05-09T07:22:18.406Z,11.20
2019-05-09T07:25:05.964Z,10.78
2019-05-09T07:27:32.419Z,12.33
2019-05-09T07:30:07.791Z,11.18
2019-05-09T07:32:58.025Z,10.60
2019-05-09T07:35:29.786Z,9.40
2019-05-09T07:38:01.480Z,9.48
2019-05-09T07:40:33.218Z,9.55
2019-05-09T07:43:07.526Z,9.05
2019-05-09T07:45:38.516Z,10.53
2019-05-09T07:48:10.051Z,9.58
2019-05-09T07:50:41.802Z,10.15
2019-05-09T07:53:13.545Z,9.88
2019-05-09T07:55:47.359Z,9.65
2019-05-09T07:58:18.861Z,9.13
2019-05-09T08:00:50.951Z,8.98
2019-05-09T08:03:22.518Z,9.30
2019-05-09T08:05:54.309Z,11.38
2019-05-09T08:08:27.764Z,10.50
2019-05-09T08:10:59.449Z,7.40
2019-05-09T08:13:31.359Z,6.95
2019-05-09T08:16:02.877Z,8.33
2019-05-09T08:18:34.704Z,7.05
2019-05-09T08:21:08.510Z,6.35
2019-05-09T08:23:40.167Z,6.35
2019-05-09T08:26:11.613Z,6.60
2019-05-09T08:28:43.070Z,5.87
2019-05-09T08:31:14.844Z,7.72
2019-05-09T08:33:48.494Z,7.00
2019-05-09T08:36:20.381Z,5.40
2019-05-09T08:38:52.151Z,6.12
2019-05-09T08:41:23.924Z,6.55
2019-05-09T08:43:57.557Z,5.10
2019-05-09T08:46:29.377Z,7.30
2019-05-09T08:49:00.884Z,5.53
2019-05-09T08:51:38.448Z,5.03
2019-05-09T08:54:09.341Z,5.53
2019-05-09T08:56:41.101Z,6.42
2019-05-09T08:59:12.413Z,7.22
2019-05-09T09:02:07.819Z,5.87
2019-05-09T09:04:18.941Z,6.90
2019-05-09T09:06:50.803Z,6.08
2019-05-09T09:09:22.588Z,6.03
2019-05-09T09:11:54.444Z,6.95
2019-05-09T09:14:27.849Z,5.70
2019-05-09T09:16:59.595Z,5.25
2019-05-09T09:19:31.360Z,5.75
2019-05-09T09:22:03.286Z,6.17
2019-05-09T09:24:37.389Z,6.33
2019-05-09T09:27:08.370Z,6.22
2019-05-09T09:29:39.815Z,6.80
2019-05-09T09:32:11.256Z,5.10
2019-05-09T09:34:42.990Z,5.58
2019-05-09T09:37:14.905Z,6.53
2019-05-09T09:39:48.820Z,4.90
2019-05-09T09:42:20.391Z,15.28
2019-05-09T09:44:52.469Z,4.35
2019-05-09T09:47:24.480Z,5.15
2019-05-09T09:49:59.457Z,4.62
2019-05-09T09:52:33.766Z,9.30
2019-05-09T09:55:03.243Z,5.70
2019-05-09T09:57:35.072Z,5.30
2019-05-09T10:00:21.249Z,4.15
2019-05-09T10:02:53.112Z,3.87
2019-05-09T10:05:27.689Z,6.40
2019-05-09T10:07:58.329Z,3.90
2019-05-09T10:10:32.581Z,4.55
2019-05-09T10:13:04.652Z,5.42
2019-05-09T10:15:52.922Z,9.08
2019-05-09T10:18:28.944Z,4.72
2019-05-09T10:21:14.030Z,5.08
2019-05-09T10:23:48.143Z,5.15
2019-05-09T10:26:19.175Z,6.15
2019-05-09T10:28:50.885Z,4.35
2019-05-09T10:31:22.900Z,4.95
2019-05-09T10:33:58.037Z,6.72
2019-05-09T10:36:29.250Z,5.75
2019-05-09T10:39:01.272Z,6.03
2019-05-09T10:41:33.409Z,7.08
2019-05-09T10:44:08.347Z,6.20
2019-05-09T10:46:57.164Z,6.12
2019-05-09T10:49:24.337Z,5.45
2019-05-09T10:51:57.919Z,5.42
2019-05-09T10:54:28.845Z,5.65
2019-05-09T10:57:00.181Z,4.20
2019-05-09T10:59:33.120Z,4.95
2019-05-09T11:02:04.594Z,4.47
2019-05-09T11:04:37.946Z,6.15
2019-05-09T11:07:10.225Z,6.45
2019-05-09T11:09:42.020Z,5.17
2019-05-09T11:12:13.874Z,5.60
2019-05-09T11:14:48.298Z,5.42
2019-05-09T11:17:21.933Z,6.90
2019-05-09T11:19:52.989Z,4.53
2019-05-09T11:22:24.688Z,4.40
2019-05-09T11:24:57.961Z,4.47
2019-05-09T11:27:29.611Z,11.65
2019-05-09T11:30:01.613Z,5.80
2019-05-09T11:32:34.675Z,6.78
2019-05-09T11:35:09.032Z,6.22
2019-05-09T11:37:40.733Z,7.50
2019-05-09T11:40:13.008Z,5.72
2019-05-09T11:42:44.350Z,6.60
2019-05-09T11:45:17.923Z,6.12
2019-05-09T11:47:49.195Z,6.55
2019-05-09T11:50:23.223Z,10.38
2019-05-09T11:52:54.152Z,8.58
2019-05-09T11:55:32.377Z,7.12
2019-05-09T11:57:59.380Z,5.58
2019-05-09T12:00:32.318Z,4.75
2019-05-09T12:03:04.387Z,4.67
2019-05-09T12:05:37.904Z,4.97
2019-05-09T12:08:09.492Z,6.03
2019-05-09T12:10:41.491Z,7.15
2019-05-09T12:13:15.276Z,9.38
2019-05-09T12:15:48.946Z,5.05
2019-05-09T12:18:20.733Z,4.15
2019-05-09T12:20:52.590Z,6.17
2019-05-09T12:23:24.576Z,5.28
2019-05-09T12:26:01.737Z,6.40
2019-05-09T12:28:34.182Z,6.58
2019-05-09T12:31:07.895Z,5.50
2019-05-09T12:33:39.667Z,5.17
2019-05-09T12:36:11.632Z,5.95
2019-05-09T12:38:46.145Z,5.40
2019-05-09T12:41:19.053Z,6.25
2019-05-09T12:43:51.004Z,10.38
2019-05-09T12:46:23.789Z,7.97
2019-05-09T12:48:55.363Z,6.78
2019-05-09T12:51:28.166Z,4.83
2019-05-09T12:53:59.978Z,5.08
2019-05-09T12:56:31.434Z,44.55
2019-05-09T12:59:05.354Z,31.52
2019-05-09T13:01:40.549Z,7.72
2019-05-09T13:04:10.718Z,7.33
2019-05-09T13:06:42.247Z,9.33
2019-05-09T13:09:14.144Z,6.70
2019-05-09T13:11:48.058Z,5.03
2019-05-09T13:14:19.624Z,8.70
2019-05-09T13:17:08.140Z,5.80
2019-05-09T13:19:41.521Z,10.60
2019-05-09T13:22:12.982Z,8.55
2019-05-09T13:24:44.663Z,9.55
2019-05-09T13:27:18.726Z,10.25
2019-05-09T13:29:49.815Z,9.30
2019-05-09T13:32:21.347Z,34.67
2019-05-09T13:34:53.403Z,14.95
2019-05-09T13:37:29.322Z,8.85
2019-05-09T13:39:58.465Z,8.40
2019-05-09T13:42:30.278Z,13.93
2019-05-09T13:45:01.897Z,6.53
2019-05-09T13:47:33.618Z,9.20
2019-05-09T13:50:09.026Z,8.93
2019-05-09T13:52:40.812Z,6.67
2019-05-09T13:55:12.756Z,10.25
2019-05-09T13:57:44.734Z,8.03
2019-05-09T14:00:18.514Z,8.38
2019-05-09T14:02:50.530Z,40.73
2019-05-09T14:05:22.778Z,8.93
2019-05-09T14:07:55.869Z,10.13
2019-05-09T14:10:28.985Z,7.65
2019-05-09T14:13:08.972Z,11.73
2019-05-09T14:15:33.922Z,12.60
2019-05-09T14:18:08.164Z,10.10
2019-05-09T14:20:42.603Z,12.05
2019-05-09T14:23:14.466Z,7.65
2019-05-09T14:25:51.611Z,7.37
2019-05-09T14:28:19.443Z,6.65
2019-05-09T14:30:51.295Z,8.15
2019-05-09T14:33:23.292Z,7.95
2019-05-09T14:35:55.293Z,6.17
2019-05-09T14:38:27.152Z,6.10
2019-05-09T14:40:59.584Z,7.65
2019-05-09T14:43:31.228Z,9.45
2019-05-09T14:46:03.211Z,6.22
2019-05-09T14:48:35.043Z,9.08
2019-05-09T14:51:07.605Z,12.63
2019-05-09T14:53:39.510Z,11.22
2019-05-09T14:56:11.028Z,6.95
2019-05-09T14:58:42.782Z,7.83
2019-05-09T15:01:14.759Z,7.87
2019-05-09T15:03:48.513Z,8.23
2019-05-09T15:06:20.095Z,8.08
2019-05-09T15:08:52.902Z,10.15
2019-05-09T15:11:27.937Z,9.53
2019-05-09T15:13:58.632Z,8.35
2019-05-09T15:16:30.438Z,5.08
2019-05-09T15:19:02.374Z,7.75
2019-05-09T15:21:34.332Z,7.12
2019-05-09T15:24:05.991Z,8.28
2019-05-09T15:26:37.771Z,10.55
2019-05-09T15:29:09.607Z,6.30
2019-05-09T15:31:41.149Z,7.37
2019-05-09T15:34:12.929Z,8.20
2019-05-09T15:36:44.775Z,7.45
2019-05-09T15:39:18.323Z,8.98
2019-05-09T15:41:50.338Z,6.70
2019-05-09T15:44:22.011Z,6.42
2019-05-09T15:46:55.083Z,7.87
2019-05-09T15:49:28.521Z,4.42
2019-05-09T15:52:01.365Z,5.65
2019-05-09T15:54:38.662Z,6.03
2019-05-09T15:57:10.328Z,6.65
2019-05-09T15:59:41.992Z,6.30
2019-05-09T16:02:14.118Z,6.37
2019-05-09T16:04:47.531Z,6.67
2019-05-09T16:07:19.387Z,5.80
2019-05-09T16:09:51.052Z,5.65
2019-05-09T16:12:23.757Z,6.72
2019-05-09T16:14:57.775Z,8.35
2019-05-09T16:17:32.258Z,8.03
2019-05-09T16:20:05.299Z,6.08
2019-05-09T16:22:39.248Z,8.20
2019-05-09T16:25:10.292Z,7.15
2019-05-09T16:27:43.521Z,6.47
2019-05-09T16:30:16.692Z,7.72
2019-05-09T16:32:48.233Z,8.25
2019-05-09T16:35:19.825Z,6.65
2019-05-09T16:38:01.735Z,13.70
2019-05-09T16:40:25.053Z,9.50
2019-05-09T16:42:58.130Z,14.18
2019-05-09T16:45:30.291Z,35.80
2019-05-09T16:48:02.274Z,8.55
2019-05-09T16:50:34.025Z,13.65
2019-05-09T16:53:08.976Z,6.22
2019-05-09T16:55:40.598Z,7.05
2019-05-09T16:58:12.462Z,7.28
2019-05-09T17:00:48.091Z,5.47
2019-05-09T17:03:19.994Z,6.95
2019-05-09T17:05:51.910Z,5.65
2019-05-09T17:08:24.027Z,6.50
2019-05-09T17:10:55.600Z,5.95
2019-05-09T17:13:28.909Z,5.05
2019-05-09T17:16:00.821Z,6.47
2019-05-09T17:18:32.659Z,6.87
2019-05-09T17:21:18.344Z,7.08
2019-05-09T17:23:43.353Z,8.88
2019-05-09T17:26:17.579Z,7.25
2019-05-09T17:28:49.140Z,8.08
2019-05-09T17:31:20.977Z,6.25
2019-05-09T17:33:52.440Z,7.03
2019-05-09T17:36:24.072Z,8.05
2019-05-09T17:38:55.832Z,5.92
2019-05-09T17:41:28.441Z,7.35
2019-05-09T17:43:59.984Z,7.65
2019-05-09T17:46:31.747Z,7.35
2019-05-09T17:49:03.270Z,7.85
2019-05-09T17:51:36.482Z,6.15
2019-05-09T17:54:08.542Z,6.62
2019-05-09T17:56:40.404Z,8.28
2019-05-09T17:59:12.145Z,7.15
2019-05-09T18:01:44.760Z,9.38
2019-05-09T18:04:17.906Z,9.40
2019-05-09T18:06:49.872Z,8.35
2019-05-09T18:09:21.950Z,6.95
2019-05-09T18:11:53.793Z,7.90
2019-05-09T18:14:27.498Z,10.00
2019-05-09T18:16:58.823Z,11.05
2019-05-09T18:19:30.531Z,8.70
2019-05-09T18:22:04.159Z,9.98
2019-05-09T18:24:37.674Z,11.48
2019-05-09T18:27:09.729Z,10.23
2019-05-09T18:29:41.734Z,11.15
2019-05-09T18:32:15.024Z,11.10
2019-05-09T18:34:48.636Z,11.78
2019-05-09T18:37:20.236Z,13.08
2019-05-09T18:39:52.069Z,15.53
2019-05-09T18:42:23.711Z,11.15
2019-05-09T18:44:55.558Z,13.62
2019-05-09T18:47:27.978Z,12.35
2019-05-09T18:50:00.061Z,10.38
2019-05-09T18:52:31.845Z,14.13
2019-05-09T18:55:05.069Z,12.05
2019-05-09T18:57:36.545Z,13.43
2019-05-09T19:00:10.413Z,12.88
2019-05-09T19:02:42.293Z,11.65
2019-05-09T19:05:14.428Z,12.20
2019-05-09T19:07:46.099Z,11.20
2019-05-09T19:10:18.133Z,13.78
2019-05-09T19:12:49.897Z,12.93
2019-05-09T19:15:26.327Z,11.15
2019-05-09T19:18:05.298Z,11.73
2019-05-09T19:20:38.995Z,13.13
2019-05-09T19:23:10.672Z,12.53
2019-05-09T19:25:42.491Z,11.83
2019-05-09T19:28:14.482Z,11.80
2019-05-09T19:30:46.364Z,12.15
2019-05-09T19:33:17.887Z,12.30
2019-05-09T19:35:50.086Z,10.95
2019-05-09T19:38:21.950Z,11.12
2019-05-09T19:40:54.010Z,12.23
2019-05-09T19:43:25.832Z,9.98
2019-05-09T19:45:57.502Z,10.08
2019-05-09T19:48:29.472Z,12.20
2019-05-09T19:51:01.144Z,12.07
2019-05-09T19:53:32.980Z,10.72
2019-05-09T19:56:04.721Z,15.90
2019-05-09T19:58:36.821Z,15.63
2019-05-09T20:01:08.590Z,13.00
2019-05-09T20:03:41.293Z,13.22
2019-05-09T20:06:16.336Z,18.10
2019-05-09T20:08:46.442Z,15.45
2019-05-09T20:11:19.875Z,14.38
2019-05-09T20:13:55.898Z,17.55
2019-05-09T20:16:39.613Z,18.12
2019-05-09T20:19:11.566Z,20.05
2019-05-09T20:21:44.714Z,22.90
2019-05-09T20:24:16.327Z,19.30
2019-05-09T20:26:48.358Z,18.95
2019-05-09T20:29:21.471Z,20.23
2019-05-09T20:31:53.231Z,17.80
2019-05-09T20:34:24.944Z,15.95
2019-05-09T20:36:57.253Z,17.32
2019-05-09T20:39:30.998Z,16.77
2019-05-09T20:42:03.114Z,14.60
2019-05-09T20:44:34.948Z,15.58
2019-05-09T20:47:07.144Z,15.08
2019-05-09T20:49:39.098Z,18.30
2019-05-09T20:52:10.913Z,14.45
2019-05-09T20:54:42.962Z,12.15
2019-05-09T20:57:14.603Z,12.93
2019-05-09T20:59:46.656Z,11.03
2019-05-09T21:02:18.639Z,9.30
2019-05-09T21:04:50.668Z,12.58
2019-05-09T21:07:22.717Z,7.90
2019-05-09T21:09:56.716Z,9.75
2019-05-09T21:12:28.393Z,10.08
2019-05-09T21:15:00.578Z,7.33
2019-05-09T21:17:32.770Z,8.20
2019-05-09T21:20:06.131Z,6.55
2019-05-09T21:22:38.065Z,8.48
2019-05-09T21:25:10.535Z,7.55
2019-05-09T21:27:42.543Z,9.00
2019-05-09T21:30:14.732Z,8.65
2019-05-09T21:32:46.336Z,8.08
2019-05-09T21:35:18.078Z,9.35
2019-05-09T21:37:49.777Z,8.88
2019-05-09T21:40:21.713Z,8.38
2019-05-09T21:42:53.246Z,9.13
2019-05-09T21:45:24.798Z,10.70
2019-05-09T21:47:56.587Z,9.10
2019-05-09T21:50:28.297Z,10.82
2019-05-09T21:53:00.275Z,11.10
2019-05-09T21:55:31.942Z,11.43
2019-05-09T21:58:03.964Z,10.23
2019-05-09T22:00:37.722Z,8.83
2019-05-09T22:03:09.668Z,14.58
2019-05-09T22:05:41.237Z,13.45
2019-05-09T22:08:12.973Z,12.07
2019-05-09T22:10:45.754Z,11.63
2019-05-09T22:13:17.595Z,14.07
2019-05-09T22:15:49.444Z,12.40
2019-05-09T22:18:21.427Z,15.20
2019-05-09T22:20:53.122Z,10.58
2019-05-09T22:23:24.949Z,10.93
2019-05-09T22:25:56.914Z,12.15
2019-05-09T22:28:28.700Z,12.25
2019-05-09T22:31:00.892Z,11.70
2019-05-09T22:33:32.488Z,9.65
2019-05-09T22:36:04.356Z,11.85
2019-05-09T22:38:36.037Z,13.08
2019-05-09T22:41:07.929Z,18.57
2019-05-09T22:43:39.567Z,21.90
2019-05-09T22:46:11.481Z,21.00
2019-05-09T22:48:43.450Z,19.48
2019-05-09T22:51:15.322Z,13.58
2019-05-09T22:53:47.004Z,21.90
2019-05-09T22:56:18.832Z,23.38
2019-05-09T22:58:50.807Z,21.70
2019-05-09T23:01:23.525Z,24.95
2019-05-09T23:03:55.320Z,35.23
2019-05-09T23:06:27.207Z,46.18
2019-05-09T23:08:59.357Z,53.70
2019-05-09T23:11:31.512Z,29.20
2019-05-09T23:14:04.102Z,31.12
2019-05-09T23:16:37.278Z,26.62
2019-05-09T23:19:08.869Z,36.33
2019-05-09T23:21:41.640Z,25.80
2019-05-09T23:24:28.677Z,23.90
2019-05-09T23:26:54.348Z,19.50
2019-05-09T23:29:26.133Z,20.00
2019-05-09T23:32:02.467Z,28.83
2019-05-09T23:34:35.845Z,41.05
2019-05-09T23:37:07.838Z,31.17
2019-05-09T23:39:44.020Z,27.35
2019-05-09T23:42:15.950Z,80.95
2019-05-09T23:44:48.275Z,70.97
2019-05-09T23:47:20.332Z,41.58
2019-05-09T23:49:52.348Z,47.38
2019-05-09T23:52:24.203Z,24.70
2019-05-09T23:55:13.883Z,29.67
2019-05-09T23:58:03.800Z,20.52
